sensor_id;sensor_type;location;lat;lon;timestamp;P1;durP1;ratioP1;P2;durP2;ratioP2
2476;SDS011;1249;51.270;6.756;2023-07-31T00:00:05;4.90;;;2.90;;
2476;SDS011;1249;51.270;6.756;2023-07-31T00:02:31;8.13;;;3.10;;
2476;SDS011;1249;51.270;6.756;2023-07-31T00:04:57;4.27;;;3.10;;
2476;SDS011;1249;51.270;6.756;2023-07-31T00:07:23;7.27;;;2.87;;
2476;SDS011;1249;51.270;6.756;2023-07-31T00:09:48;5.17;;;2.97;;
2476;SDS011;1249;51.270;6.756;2023-07-31T00:12:14;6.73;;;2.67;;
2476;SDS011;1249;51.270;6.756;2023-07-31T00:14:39;4.83;;;3.20;;
2476;SDS011;1249;51.270;6.756;2023-07-31T00:17:05;5.20;;;3.10;;
2476;SDS011;1249;51.270;6.756;2023-07-31T00:19:30;5.57;;;3.20;;
2476;SDS011;1249;51.270;6.756;2023-07-31T00:21:56;6.07;;;3.03;;
2476;SDS011;1249;51.270;6.756;2023-07-31T00:24:21;4.00;;;2.70;;
2476;SDS011;1249;51.270;6.756;2023-07-31T00:26:47;4.87;;;3.13;;
2476;SDS011;1249;51.270;6.756;2023-07-31T00:29:12;5.40;;;3.13;;
2476;SDS011;1249;51.270;6.756;2023-07-31T00:31:38;5.87;;;3.93;;
2476;SDS011;1249;51.270;6.756;2023-07-31T00:34:04;6.23;;;3.33;;
2476;SDS011;1249;51.270;6.756;2023-07-31T00:36:29;5.80;;;3.53;;
2476;SDS011;1249;51.270;6.756;2023-07-31T00:38:55;3.40;;;3.00;;
2476;SDS011;1249;51.270;6.756;2023-07-31T00:41:20;5.90;;;3.80;;
2476;SDS011;1249;51.270;6.756;2023-07-31T00:43:46;7.27;;;2.90;;
2476;SDS011;1249;51.270;6.756;2023-07-31T00:46:11;3.57;;;2.10;;
2476;SDS011;1249;51.270;6.756;2023-07-31T00:48:37;9.40;;;3.77;;
2476;SDS011;1249;51.270;6.756;2023-07-31T00:51:06;7.00;;;3.50;;
2476;SDS011;1249;51.270;6.756;2023-07-31T00:53:32;4.70;;;3.50;;
2476;SDS011;1249;51.270;6.756;2023-07-31T00:55:59;5.30;;;3.77;;
2476;SDS011;1249;51.270;6.756;2023-07-31T00:58:24;5.70;;;2.90;;
2476;SDS011;1249;51.270;6.756;2023-07-31T01:00:50;4.77;;;3.13;;
2476;SDS011;1249;51.270;6.756;2023-07-31T01:03:16;5.53;;;3.37;;
2476;SDS011;1249;51.270;6.756;2023-07-31T01:05:50;2.80;;;2.50;;
2476;SDS011;1249;51.270;6.756;2023-07-31T01:08:32;5.00;;;3.43;;
2476;SDS011;1249;51.270;6.756;2023-07-31T01:11:21;3.60;;;3.30;;
2476;SDS011;1249;51.270;6.756;2023-07-31T01:13:52;3.97;;;3.27;;
2476;SDS011;1249;51.270;6.756;2023-07-31T01:16:19;7.47;;;3.43;;
2476;SDS011;1249;51.270;6.756;2023-07-31T01:18:45;3.80;;;3.33;;
2476;SDS011;1249;51.270;6.756;2023-07-31T01:26:55;5.93;;;3.03;;
2476;SDS011;1249;51.270;6.756;2023-07-31T01:29:25;8.27;;;3.10;;
2476;SDS011;1249;51.270;6.756;2023-07-31T01:32:01;7.97;;;3.17;;
2476;SDS011;1249;51.270;6.756;2023-07-31T01:34:28;5.80;;;4.30;;
2476;SDS011;1249;51.270;6.756;2023-07-31T01:36:55;5.77;;;3.90;;
2476;SDS011;1249;51.270;6.756;2023-07-31T01:39:23;7.60;;;3.70;;
2476;SDS011;1249;51.270;6.756;2023-07-31T01:41:49;7.70;;;3.00;;
2476;SDS011;1249;51.270;6.756;2023-07-31T01:44:14;6.23;;;3.03;;
2476;SDS011;1249;51.270;6.756;2023-07-31T01:46:40;6.70;;;4.20;;
2476;SDS011;1249;51.270;6.756;2023-07-31T01:49:05;5.63;;;3.87;;
2476;SDS011;1249;51.270;6.756;2023-07-31T01:51:31;6.03;;;3.50;;
2476;SDS011;1249;51.270;6.756;2023-07-31T01:54:00;8.93;;;3.40;;
2476;SDS011;1249;51.270;6.756;2023-07-31T01:56:26;7.83;;;3.70;;
2476;SDS011;1249;51.270;6.756;2023-07-31T01:58:52;4.37;;;3.27;;
2476;SDS011;1249;51.270;6.756;2023-07-31T02:01:18;5.60;;;3.50;;
2476;SDS011;1249;51.270;6.756;2023-07-31T02:03:43;4.70;;;3.50;;
2476;SDS011;1249;51.270;6.756;2023-07-31T02:06:09;3.50;;;3.20;;
2476;SDS011;1249;51.270;6.756;2023-07-31T02:08:34;8.23;;;3.73;;
2476;SDS011;1249;51.270;6.756;2023-07-31T02:11:00;7.80;;;3.50;;
2476;SDS011;1249;51.270;6.756;2023-07-31T02:13:25;8.23;;;3.77;;
2476;SDS011;1249;51.270;6.756;2023-07-31T02:15:51;4.97;;;2.70;;
2476;SDS011;1249;51.270;6.756;2023-07-31T02:18:17;12.87;;;3.70;;
2476;SDS011;1249;51.270;6.756;2023-07-31T02:20:42;8.53;;;3.90;;
2476;SDS011;1249;51.270;6.756;2023-07-31T02:23:08;5.47;;;3.50;;
2476;SDS011;1249;51.270;6.756;2023-07-31T02:25:34;7.43;;;3.57;;
2476;SDS011;1249;51.270;6.756;2023-07-31T02:27:59;3.70;;;2.63;;
2476;SDS011;1249;51.270;6.756;2023-07-31T02:30:25;4.57;;;3.60;;
2476;SDS011;1249;51.270;6.756;2023-07-31T02:32:50;9.10;;;3.40;;
2476;SDS011;1249;51.270;6.756;2023-07-31T02:35:16;8.03;;;3.40;;
2476;SDS011;1249;51.270;6.756;2023-07-31T02:37:43;9.27;;;4.00;;
2476;SDS011;1249;51.270;6.756;2023-07-31T02:40:09;5.07;;;3.10;;
2476;SDS011;1249;51.270;6.756;2023-07-31T02:42:35;8.17;;;3.63;;
2476;SDS011;1249;51.270;6.756;2023-07-31T02:45:00;5.90;;;3.67;;
2476;SDS011;1249;51.270;6.756;2023-07-31T02:47:26;5.03;;;3.37;;
2476;SDS011;1249;51.270;6.756;2023-07-31T02:49:51;7.03;;;4.30;;
2476;SDS011;1249;51.270;6.756;2023-07-31T02:52:17;9.60;;;3.57;;
2476;SDS011;1249;51.270;6.756;2023-07-31T02:54:42;8.10;;;4.00;;
2476;SDS011;1249;51.270;6.756;2023-07-31T02:57:08;5.77;;;3.60;;
2476;SDS011;1249;51.270;6.756;2023-07-31T02:59:33;4.93;;;3.40;;
2476;SDS011;1249;51.270;6.756;2023-07-31T03:01:59;5.43;;;3.53;;
2476;SDS011;1249;51.270;6.756;2023-07-31T03:04:24;4.40;;;2.83;;
2476;SDS011;1249;51.270;6.756;2023-07-31T03:06:50;6.60;;;3.87;;
2476;SDS011;1249;51.270;6.756;2023-07-31T03:09:15;10.50;;;4.07;;
2476;SDS011;1249;51.270;6.756;2023-07-31T03:11:41;7.07;;;3.80;;
2476;SDS011;1249;51.270;6.756;2023-07-31T03:14:06;8.47;;;3.40;;
2476;SDS011;1249;51.270;6.756;2023-07-31T03:16:32;7.87;;;3.60;;
2476;SDS011;1249;51.270;6.756;2023-07-31T03:18:57;4.53;;;3.50;;
2476;SDS011;1249;51.270;6.756;2023-07-31T03:21:23;8.60;;;4.77;;
2476;SDS011;1249;51.270;6.756;2023-07-31T03:23:48;3.67;;;3.10;;
2476;SDS011;1249;51.270;6.756;2023-07-31T03:26:14;5.17;;;3.20;;
2476;SDS011;1249;51.270;6.756;2023-07-31T03:28:40;6.97;;;4.13;;
2476;SDS011;1249;51.270;6.756;2023-07-31T03:31:05;8.40;;;3.13;;
2476;SDS011;1249;51.270;6.756;2023-07-31T03:33:31;5.70;;;3.53;;
2476;SDS011;1249;51.270;6.756;2023-07-31T03:35:56;9.50;;;3.97;;
2476;SDS011;1249;51.270;6.756;2023-07-31T03:38:22;3.30;;;2.77;;
2476;SDS011;1249;51.270;6.756;2023-07-31T03:40:48;6.60;;;3.70;;
2476;SDS011;1249;51.270;6.756;2023-07-31T03:43:13;5.97;;;4.20;;
2476;SDS011;1249;51.270;6.756;2023-07-31T03:45:40;5.27;;;3.33;;
2476;SDS011;1249;51.270;6.756;2023-07-31T03:48:05;5.90;;;3.17;;
2476;SDS011;1249;51.270;6.756;2023-07-31T03:50:32;3.67;;;3.00;;
2476;SDS011;1249;51.270;6.756;2023-07-31T03:52:58;8.27;;;3.10;;
2476;SDS011;1249;51.270;6.756;2023-07-31T03:55:23;5.30;;;3.10;;
2476;SDS011;1249;51.270;6.756;2023-07-31T03:57:49;4.53;;;3.43;;
2476;SDS011;1249;51.270;6.756;2023-07-31T04:00:15;3.80;;;3.37;;
2476;SDS011;1249;51.270;6.756;2023-07-31T04:02:40;6.07;;;4.10;;
2476;SDS011;1249;51.270;6.756;2023-07-31T04:05:06;6.30;;;3.20;;
2476;SDS011;1249;51.270;6.756;2023-07-31T04:07:32;8.03;;;3.10;;
2476;SDS011;1249;51.270;6.756;2023-07-31T04:09:58;4.30;;;3.90;;
2476;SDS011;1249;51.270;6.756;2023-07-31T04:12:24;7.50;;;3.67;;
2476;SDS011;1249;51.270;6.756;2023-07-31T04:14:50;6.30;;;4.27;;
2476;SDS011;1249;51.270;6.756;2023-07-31T04:17:17;7.37;;;4.17;;
2476;SDS011;1249;51.270;6.756;2023-07-31T04:19:42;6.03;;;3.80;;
2476;SDS011;1249;51.270;6.756;2023-07-31T04:22:08;5.20;;;3.27;;
2476;SDS011;1249;51.270;6.756;2023-07-31T04:24:33;8.60;;;3.67;;
2476;SDS011;1249;51.270;6.756;2023-07-31T04:26:59;5.70;;;4.10;;
2476;SDS011;1249;51.270;6.756;2023-07-31T04:29:25;7.97;;;4.50;;
2476;SDS011;1249;51.270;6.756;2023-07-31T04:31:50;5.23;;;3.40;;
2476;SDS011;1249;51.270;6.756;2023-07-31T04:34:16;4.70;;;3.73;;
2476;SDS011;1249;51.270;6.756;2023-07-31T04:36:41;8.33;;;4.40;;
2476;SDS011;1249;51.270;6.756;2023-07-31T04:39:07;3.47;;;3.00;;
2476;SDS011;1249;51.270;6.756;2023-07-31T04:41:32;12.73;;;4.57;;
2476;SDS011;1249;51.270;6.756;2023-07-31T04:43:58;9.20;;;3.73;;
2476;SDS011;1249;51.270;6.756;2023-07-31T04:46:23;15.73;;;4.20;;
2476;SDS011;1249;51.270;6.756;2023-07-31T04:48:49;4.30;;;3.70;;
2476;SDS011;1249;51.270;6.756;2023-07-31T04:51:14;4.47;;;3.60;;
2476;SDS011;1249;51.270;6.756;2023-07-31T04:53:40;12.37;;;4.00;;
2476;SDS011;1249;51.270;6.756;2023-07-31T04:56:05;7.97;;;4.67;;
2476;SDS011;1249;51.270;6.756;2023-07-31T04:58:31;7.53;;;4.63;;
2476;SDS011;1249;51.270;6.756;2023-07-31T05:00:56;6.77;;;5.00;;
2476;SDS011;1249;51.270;6.756;2023-07-31T05:03:22;4.10;;;3.50;;
2476;SDS011;1249;51.270;6.756;2023-07-31T05:05:48;6.20;;;3.57;;
2476;SDS011;1249;51.270;6.756;2023-07-31T05:08:13;7.43;;;3.90;;
2476;SDS011;1249;51.270;6.756;2023-07-31T05:10:39;8.07;;;4.30;;
2476;SDS011;1249;51.270;6.756;2023-07-31T05:13:04;6.03;;;3.80;;
2476;SDS011;1249;51.270;6.756;2023-07-31T05:15:30;5.07;;;4.30;;
2476;SDS011;1249;51.270;6.756;2023-07-31T05:17:55;4.43;;;3.40;;
2476;SDS011;1249;51.270;6.756;2023-07-31T05:20:21;6.50;;;4.03;;
2476;SDS011;1249;51.270;6.756;2023-07-31T05:22:47;6.07;;;4.47;;
2476;SDS011;1249;51.270;6.756;2023-07-31T05:25:12;5.27;;;4.03;;
2476;SDS011;1249;51.270;6.756;2023-07-31T05:27:38;5.17;;;4.07;;
2476;SDS011;1249;51.270;6.756;2023-07-31T05:30:04;6.70;;;4.53;;
2476;SDS011;1249;51.270;6.756;2023-07-31T05:32:30;6.90;;;3.57;;
2476;SDS011;1249;51.270;6.756;2023-07-31T05:34:56;5.63;;;4.20;;
2476;SDS011;1249;51.270;6.756;2023-07-31T05:37:21;6.17;;;3.40;;
2476;SDS011;1249;51.270;6.756;2023-07-31T05:39:47;7.03;;;4.37;;
2476;SDS011;1249;51.270;6.756;2023-07-31T05:42:13;7.13;;;3.47;;
2476;SDS011;1249;51.270;6.756;2023-07-31T05:44:38;7.63;;;5.37;;
2476;SDS011;1249;51.270;6.756;2023-07-31T05:47:04;5.90;;;4.07;;
2476;SDS011;1249;51.270;6.756;2023-07-31T05:49:30;8.77;;;3.93;;
2476;SDS011;1249;51.270;6.756;2023-07-31T05:51:55;7.53;;;4.10;;
2476;SDS011;1249;51.270;6.756;2023-07-31T05:54:21;5.13;;;3.90;;
2476;SDS011;1249;51.270;6.756;2023-07-31T05:56:47;4.13;;;3.47;;
2476;SDS011;1249;51.270;6.756;2023-07-31T05:59:12;4.23;;;3.83;;
2476;SDS011;1249;51.270;6.756;2023-07-31T06:01:39;5.63;;;3.90;;
2476;SDS011;1249;51.270;6.756;2023-07-31T06:04:04;5.73;;;4.03;;
2476;SDS011;1249;51.270;6.756;2023-07-31T06:06:30;10.63;;;5.80;;
2476;SDS011;1249;51.270;6.756;2023-07-31T06:08:56;8.30;;;4.10;;
2476;SDS011;1249;51.270;6.756;2023-07-31T06:11:21;5.73;;;3.37;;
2476;SDS011;1249;51.270;6.756;2023-07-31T06:13:47;7.80;;;3.73;;
2476;SDS011;1249;51.270;6.756;2023-07-31T06:16:14;4.50;;;4.00;;
2476;SDS011;1249;51.270;6.756;2023-07-31T06:18:40;4.53;;;3.63;;
2476;SDS011;1249;51.270;6.756;2023-07-31T06:21:06;5.37;;;3.73;;
2476;SDS011;1249;51.270;6.756;2023-07-31T06:23:32;5.93;;;3.30;;
2476;SDS011;1249;51.270;6.756;2023-07-31T06:25:57;8.50;;;4.10;;
2476;SDS011;1249;51.270;6.756;2023-07-31T06:28:29;5.43;;;4.10;;
2476;SDS011;1249;51.270;6.756;2023-07-31T06:30:56;5.57;;;3.93;;
2476;SDS011;1249;51.270;6.756;2023-07-31T06:33:22;6.90;;;4.40;;
2476;SDS011;1249;51.270;6.756;2023-07-31T06:35:47;3.83;;;3.53;;
2476;SDS011;1249;51.270;6.756;2023-07-31T06:38:13;4.73;;;3.60;;
2476;SDS011;1249;51.270;6.756;2023-07-31T06:40:38;4.93;;;3.10;;
2476;SDS011;1249;51.270;6.756;2023-07-31T06:43:04;7.70;;;3.90;;
2476;SDS011;1249;51.270;6.756;2023-07-31T06:45:36;5.60;;;3.23;;
2476;SDS011;1249;51.270;6.756;2023-07-31T06:48:03;4.27;;;3.07;;
2476;SDS011;1249;51.270;6.756;2023-07-31T06:50:29;6.03;;;3.97;;
2476;SDS011;1249;51.270;6.756;2023-07-31T06:52:55;5.47;;;3.57;;
2476;SDS011;1249;51.270;6.756;2023-07-31T06:55:21;4.23;;;3.77;;
2476;SDS011;1249;51.270;6.756;2023-07-31T06:57:48;9.60;;;4.53;;
2476;SDS011;1249;51.270;6.756;2023-07-31T07:00:15;4.60;;;4.20;;
2476;SDS011;1249;51.270;6.756;2023-07-31T07:02:41;4.20;;;3.37;;
2476;SDS011;1249;51.270;6.756;2023-07-31T07:05:06;6.37;;;3.50;;
2476;SDS011;1249;51.270;6.756;2023-07-31T07:07:33;4.73;;;2.90;;
2476;SDS011;1249;51.270;6.756;2023-07-31T07:09:58;5.43;;;3.57;;
2476;SDS011;1249;51.270;6.756;2023-07-31T07:12:29;6.40;;;3.23;;
2476;SDS011;1249;51.270;6.756;2023-07-31T07:14:55;5.30;;;3.47;;
2476;SDS011;1249;51.270;6.756;2023-07-31T07:17:22;5.43;;;3.73;;
2476;SDS011;1249;51.270;6.756;2023-07-31T07:19:48;10.30;;;3.50;;
2476;SDS011;1249;51.270;6.756;2023-07-31T07:22:14;3.40;;;2.93;;
2476;SDS011;1249;51.270;6.756;2023-07-31T07:24:39;3.83;;;3.20;;
2476;SDS011;1249;51.270;6.756;2023-07-31T07:27:05;7.10;;;3.67;;
2476;SDS011;1249;51.270;6.756;2023-07-31T07:29:31;5.07;;;3.00;;
2476;SDS011;1249;51.270;6.756;2023-07-31T07:31:56;4.90;;;3.70;;
2476;SDS011;1249;51.270;6.756;2023-07-31T07:34:22;4.60;;;3.30;;
2476;SDS011;1249;51.270;6.756;2023-07-31T07:36:50;8.17;;;3.47;;
2476;SDS011;1249;51.270;6.756;2023-07-31T07:39:15;8.33;;;3.30;;
2476;SDS011;1249;51.270;6.756;2023-07-31T07:41:41;4.70;;;3.17;;
2476;SDS011;1249;51.270;6.756;2023-07-31T07:44:07;5.07;;;3.67;;
2476;SDS011;1249;51.270;6.756;2023-07-31T07:46:33;6.97;;;3.37;;
2476;SDS011;1249;51.270;6.756;2023-07-31T07:48:58;6.70;;;3.20;;
2476;SDS011;1249;51.270;6.756;2023-07-31T07:51:24;6.13;;;3.30;;
2476;SDS011;1249;51.270;6.756;2023-07-31T07:53:50;5.10;;;2.97;;
2476;SDS011;1249;51.270;6.756;2023-07-31T07:56:15;5.93;;;2.90;;
2476;SDS011;1249;51.270;6.756;2023-07-31T07:58:41;5.10;;;3.23;;
2476;SDS011;1249;51.270;6.756;2023-07-31T08:01:07;4.97;;;2.90;;
2476;SDS011;1249;51.270;6.756;2023-07-31T08:03:32;6.10;;;3.63;;
2476;SDS011;1249;51.270;6.756;2023-07-31T08:05:58;5.07;;;3.33;;
2476;SDS011;1249;51.270;6.756;2023-07-31T08:08:24;3.93;;;2.87;;
2476;SDS011;1249;51.270;6.756;2023-07-31T08:10:50;2.60;;;2.40;;
2476;SDS011;1249;51.270;6.756;2023-07-31T08:13:15;3.87;;;3.07;;
2476;SDS011;1249;51.270;6.756;2023-07-31T08:15:41;4.00;;;3.13;;
2476;SDS011;1249;51.270;6.756;2023-07-31T08:18:08;5.27;;;3.10;;
2476;SDS011;1249;51.270;6.756;2023-07-31T08:20:34;3.87;;;2.67;;
2476;SDS011;1249;51.270;6.756;2023-07-31T08:23:00;2.77;;;2.27;;
2476;SDS011;1249;51.270;6.756;2023-07-31T08:25:26;2.97;;;2.70;;
2476;SDS011;1249;51.270;6.756;2023-07-31T08:27:52;2.90;;;2.70;;
2476;SDS011;1249;51.270;6.756;2023-07-31T08:30:18;3.80;;;3.50;;
2476;SDS011;1249;51.270;6.756;2023-07-31T08:32:44;3.97;;;2.67;;
2476;SDS011;1249;51.270;6.756;2023-07-31T08:35:10;2.57;;;2.37;;
2476;SDS011;1249;51.270;6.756;2023-07-31T08:37:35;4.20;;;3.03;;
2476;SDS011;1249;51.270;6.756;2023-07-31T08:40:03;5.50;;;3.97;;
2476;SDS011;1249;51.270;6.756;2023-07-31T08:42:29;3.67;;;3.03;;
2476;SDS011;1249;51.270;6.756;2023-07-31T08:44:55;5.33;;;3.43;;
2476;SDS011;1249;51.270;6.756;2023-07-31T08:47:22;3.50;;;3.10;;
2476;SDS011;1249;51.270;6.756;2023-07-31T08:49:49;5.80;;;3.43;;
2476;SDS011;1249;51.270;6.756;2023-07-31T08:52:16;3.20;;;2.90;;
2476;SDS011;1249;51.270;6.756;2023-07-31T08:54:41;3.80;;;2.93;;
2476;SDS011;1249;51.270;6.756;2023-07-31T08:57:07;3.50;;;3.10;;
2476;SDS011;1249;51.270;6.756;2023-07-31T08:59:35;4.67;;;2.90;;
2476;SDS011;1249;51.270;6.756;2023-07-31T09:02:03;3.93;;;2.83;;
2476;SDS011;1249;51.270;6.756;2023-07-31T09:04:33;3.83;;;2.83;;
2476;SDS011;1249;51.270;6.756;2023-07-31T09:07:02;4.67;;;2.80;;
2476;SDS011;1249;51.270;6.756;2023-07-31T09:09:32;3.37;;;3.07;;
2476;SDS011;1249;51.270;6.756;2023-07-31T09:11:58;3.00;;;2.70;;
2476;SDS011;1249;51.270;6.756;2023-07-31T09:14:27;4.43;;;3.17;;
2476;SDS011;1249;51.270;6.756;2023-07-31T09:16:56;3.37;;;2.93;;
2476;SDS011;1249;51.270;6.756;2023-07-31T09:19:28;4.33;;;3.33;;
2476;SDS011;1249;51.270;6.756;2023-07-31T09:21:58;6.63;;;2.90;;
2476;SDS011;1249;51.270;6.756;2023-07-31T09:24:24;3.47;;;3.17;;
2476;SDS011;1249;51.270;6.756;2023-07-31T09:26:53;5.20;;;2.83;;
2476;SDS011;1249;51.270;6.756;2023-07-31T09:29:20;4.53;;;2.63;;
2476;SDS011;1249;51.270;6.756;2023-07-31T09:31:46;3.70;;;3.00;;
2476;SDS011;1249;51.270;6.756;2023-07-31T09:34:11;3.20;;;2.90;;
2476;SDS011;1249;51.270;6.756;2023-07-31T09:39:15;4.70;;;2.77;;
2476;SDS011;1249;51.270;6.756;2023-07-31T09:41:43;2.53;;;2.30;;
2476;SDS011;1249;51.270;6.756;2023-07-31T09:44:10;3.10;;;2.73;;
2476;SDS011;1249;51.270;6.756;2023-07-31T09:46:35;3.47;;;2.63;;
2476;SDS011;1249;51.270;6.756;2023-07-31T09:49:05;4.07;;;2.90;;
2476;SDS011;1249;51.270;6.756;2023-07-31T09:51:38;3.60;;;2.83;;
2476;SDS011;1249;51.270;6.756;2023-07-31T09:54:12;5.30;;;2.93;;
2476;SDS011;1249;51.270;6.756;2023-07-31T09:56:41;3.97;;;3.57;;
2476;SDS011;1249;51.270;6.756;2023-07-31T09:59:09;4.80;;;3.07;;
2476;SDS011;1249;51.270;6.756;2023-07-31T10:01:37;3.47;;;3.00;;
2476;SDS011;1249;51.270;6.756;2023-07-31T10:04:04;5.40;;;3.33;;
2476;SDS011;1249;51.270;6.756;2023-07-31T10:06:32;4.30;;;2.80;;
2476;SDS011;1249;51.270;6.756;2023-07-31T10:08:59;5.83;;;3.73;;
2476;SDS011;1249;51.270;6.756;2023-07-31T10:11:25;2.30;;;2.10;;
2476;SDS011;1249;51.270;6.756;2023-07-31T10:13:54;2.87;;;2.60;;
2476;SDS011;1249;51.270;6.756;2023-07-31T10:16:20;4.57;;;2.70;;
2476;SDS011;1249;51.270;6.756;2023-07-31T10:18:46;4.50;;;2.90;;
2476;SDS011;1249;51.270;6.756;2023-07-31T10:21:12;4.50;;;2.50;;
2476;SDS011;1249;51.270;6.756;2023-07-31T10:23:39;3.50;;;2.93;;
2476;SDS011;1249;51.270;6.756;2023-07-31T10:26:05;3.47;;;2.80;;
2476;SDS011;1249;51.270;6.756;2023-07-31T10:28:32;5.60;;;2.73;;
2476;SDS011;1249;51.270;6.756;2023-07-31T10:30:59;3.47;;;2.80;;
2476;SDS011;1249;51.270;6.756;2023-07-31T10:33:26;5.20;;;3.30;;
2476;SDS011;1249;51.270;6.756;2023-07-31T10:36:11;4.00;;;3.10;;
2476;SDS011;1249;51.270;6.756;2023-07-31T10:38:38;5.60;;;2.73;;
2476;SDS011;1249;51.270;6.756;2023-07-31T10:41:10;4.10;;;2.53;;
2476;SDS011;1249;51.270;6.756;2023-07-31T10:43:38;3.27;;;2.33;;
2476;SDS011;1249;51.270;6.756;2023-07-31T10:46:08;5.33;;;2.50;;
2476;SDS011;1249;51.270;6.756;2023-07-31T10:48:36;3.47;;;2.90;;
2476;SDS011;1249;51.270;6.756;2023-07-31T10:51:06;3.07;;;2.77;;
2476;SDS011;1249;51.270;6.756;2023-07-31T10:53:34;3.97;;;2.73;;
2476;SDS011;1249;51.270;6.756;2023-07-31T10:56:00;3.83;;;3.00;;
2476;SDS011;1249;51.270;6.756;2023-07-31T10:58:30;3.73;;;2.87;;
2476;SDS011;1249;51.270;6.756;2023-07-31T11:01:00;7.33;;;2.87;;
2476;SDS011;1249;51.270;6.756;2023-07-31T11:03:41;4.00;;;2.80;;
2476;SDS011;1249;51.270;6.756;2023-07-31T11:06:14;3.10;;;2.40;;
2476;SDS011;1249;51.270;6.756;2023-07-31T11:08:41;3.43;;;2.30;;
2476;SDS011;1249;51.270;6.756;2023-07-31T11:11:09;3.57;;;2.17;;
2476;SDS011;1249;51.270;6.756;2023-07-31T11:13:43;7.83;;;2.57;;
2476;SDS011;1249;51.270;6.756;2023-07-31T11:16:11;3.70;;;2.37;;
2476;SDS011;1249;51.270;6.756;2023-07-31T11:18:38;2.93;;;2.20;;
2476;SDS011;1249;51.270;6.756;2023-07-31T11:21:05;2.47;;;2.27;;
2476;SDS011;1249;51.270;6.756;2023-07-31T11:23:31;2.93;;;1.93;;
2476;SDS011;1249;51.270;6.756;2023-07-31T11:26:00;2.77;;;2.27;;
2476;SDS011;1249;51.270;6.756;2023-07-31T11:28:26;2.37;;;2.17;;
2476;SDS011;1249;51.270;6.756;2023-07-31T11:30:58;3.30;;;1.90;;
2476;SDS011;1249;51.270;6.756;2023-07-31T11:33:24;2.73;;;2.10;;
2476;SDS011;1249;51.270;6.756;2023-07-31T11:35:49;1.90;;;1.80;;
2476;SDS011;1249;51.270;6.756;2023-07-31T11:38:25;1.87;;;1.77;;
2476;SDS011;1249;51.270;6.756;2023-07-31T11:40:53;3.10;;;2.47;;
2476;SDS011;1249;51.270;6.756;2023-07-31T11:43:19;1.90;;;1.80;;
2476;SDS011;1249;51.270;6.756;2023-07-31T11:45:49;3.80;;;1.77;;
2476;SDS011;1249;51.270;6.756;2023-07-31T11:50:51;3.00;;;1.97;;
2476;SDS011;1249;51.270;6.756;2023-07-31T11:53:19;4.67;;;1.57;;
2476;SDS011;1249;51.270;6.756;2023-07-31T11:55:48;3.40;;;2.30;;
2476;SDS011;1249;51.270;6.756;2023-07-31T11:58:15;4.23;;;2.27;;
2476;SDS011;1249;51.270;6.756;2023-07-31T12:00:42;2.40;;;2.17;;
2476;SDS011;1249;51.270;6.756;2023-07-31T12:03:08;2.27;;;1.60;;
2476;SDS011;1249;51.270;6.756;2023-07-31T12:05:33;3.00;;;2.13;;
2476;SDS011;1249;51.270;6.756;2023-07-31T12:07:59;2.90;;;1.83;;
2476;SDS011;1249;51.270;6.756;2023-07-31T12:10:31;2.00;;;1.90;;
2476;SDS011;1249;51.270;6.756;2023-07-31T12:13:01;2.63;;;2.43;;
2476;SDS011;1249;51.270;6.756;2023-07-31T12:15:38;10.30;;;2.30;;
2476;SDS011;1249;51.270;6.756;2023-07-31T12:18:09;2.30;;;2.17;;
2476;SDS011;1249;51.270;6.756;2023-07-31T12:20:39;2.30;;;1.67;;
2476;SDS011;1249;51.270;6.756;2023-07-31T12:23:12;1.80;;;1.70;;
2476;SDS011;1249;51.270;6.756;2023-07-31T12:25:42;2.27;;;2.00;;
2476;SDS011;1249;51.270;6.756;2023-07-31T12:28:08;2.20;;;2.00;;
2476;SDS011;1249;51.270;6.756;2023-07-31T12:30:37;3.67;;;2.40;;
2476;SDS011;1249;51.270;6.756;2023-07-31T12:33:12;2.43;;;1.70;;
2476;SDS011;1249;51.270;6.756;2023-07-31T12:35:46;2.33;;;2.00;;
2476;SDS011;1249;51.270;6.756;2023-07-31T12:38:12;1.90;;;1.80;;
2476;SDS011;1249;51.270;6.756;2023-07-31T12:40:39;1.97;;;1.87;;
2476;SDS011;1249;51.270;6.756;2023-07-31T12:43:05;2.30;;;2.00;;
2476;SDS011;1249;51.270;6.756;2023-07-31T12:45:32;3.30;;;1.87;;
2476;SDS011;1249;51.270;6.756;2023-07-31T12:47:58;2.00;;;1.83;;
2476;SDS011;1249;51.270;6.756;2023-07-31T12:50:24;2.40;;;2.20;;
2476;SDS011;1249;51.270;6.756;2023-07-31T12:52:50;2.53;;;2.10;;
2476;SDS011;1249;51.270;6.756;2023-07-31T12:55:17;2.27;;;2.07;;
2476;SDS011;1249;51.270;6.756;2023-07-31T12:57:43;2.30;;;2.10;;
2476;SDS011;1249;51.270;6.756;2023-07-31T13:00:09;2.80;;;2.60;;
2476;SDS011;1249;51.270;6.756;2023-07-31T13:02:36;3.03;;;2.23;;
2476;SDS011;1249;51.270;6.756;2023-07-31T13:05:01;2.87;;;2.57;;
2476;SDS011;1249;51.270;6.756;2023-07-31T13:07:27;2.30;;;2.10;;
2476;SDS011;1249;51.270;6.756;2023-07-31T13:09:53;3.30;;;2.70;;
2476;SDS011;1249;51.270;6.756;2023-07-31T13:12:18;2.97;;;2.43;;
2476;SDS011;1249;51.270;6.756;2023-07-31T13:14:44;3.33;;;3.03;;
2476;SDS011;1249;51.270;6.756;2023-07-31T13:17:09;3.80;;;2.80;;
2476;SDS011;1249;51.270;6.756;2023-07-31T13:19:35;3.40;;;2.50;;
2476;SDS011;1249;51.270;6.756;2023-07-31T13:22:01;3.27;;;2.70;;
2476;SDS011;1249;51.270;6.756;2023-07-31T13:24:26;3.03;;;2.83;;
2476;SDS011;1249;51.270;6.756;2023-07-31T13:26:52;4.43;;;3.00;;
2476;SDS011;1249;51.270;6.756;2023-07-31T13:29:17;3.40;;;3.10;;
2476;SDS011;1249;51.270;6.756;2023-07-31T13:31:43;4.30;;;3.03;;
2476;SDS011;1249;51.270;6.756;2023-07-31T13:34:08;3.90;;;2.87;;
2476;SDS011;1249;51.270;6.756;2023-07-31T13:36:34;3.40;;;2.77;;
2476;SDS011;1249;51.270;6.756;2023-07-31T13:39:01;3.70;;;3.27;;
2476;SDS011;1249;51.270;6.756;2023-07-31T13:41:28;3.03;;;2.80;;
2476;SDS011;1249;51.270;6.756;2023-07-31T13:43:53;3.30;;;2.97;;
2476;SDS011;1249;51.270;6.756;2023-07-31T13:46:19;4.57;;;3.10;;
2476;SDS011;1249;51.270;6.756;2023-07-31T13:48:45;3.90;;;2.57;;
2476;SDS011;1249;51.270;6.756;2023-07-31T13:51:10;4.67;;;3.20;;
2476;SDS011;1249;51.270;6.756;2023-07-31T13:53:36;3.60;;;2.83;;
2476;SDS011;1249;51.270;6.756;2023-07-31T13:56:01;5.03;;;3.80;;
2476;SDS011;1249;51.270;6.756;2023-07-31T13:58:27;3.83;;;3.40;;
2476;SDS011;1249;51.270;6.756;2023-07-31T14:00:53;2.93;;;2.73;;
2476;SDS011;1249;51.270;6.756;2023-07-31T14:03:18;3.00;;;2.80;;
2476;SDS011;1249;51.270;6.756;2023-07-31T14:05:44;3.80;;;3.50;;
2476;SDS011;1249;51.270;6.756;2023-07-31T14:08:09;4.63;;;3.00;;
2476;SDS011;1249;51.270;6.756;2023-07-31T14:10:35;5.20;;;3.27;;
2476;SDS011;1249;51.270;6.756;2023-07-31T14:13:00;6.57;;;3.60;;
2476;SDS011;1249;51.270;6.756;2023-07-31T14:15:26;4.93;;;3.13;;
2476;SDS011;1249;51.270;6.756;2023-07-31T14:17:52;6.47;;;3.03;;
2476;SDS011;1249;51.270;6.756;2023-07-31T14:20:18;3.27;;;2.60;;
2476;SDS011;1249;51.270;6.756;2023-07-31T14:22:44;3.00;;;2.70;;
2476;SDS011;1249;51.270;6.756;2023-07-31T14:25:09;2.90;;;2.60;;
2476;SDS011;1249;51.270;6.756;2023-07-31T14:27:35;2.93;;;2.73;;
2476;SDS011;1249;51.270;6.756;2023-07-31T14:30:01;5.13;;;3.33;;
2476;SDS011;1249;51.270;6.756;2023-07-31T14:32:27;7.63;;;3.40;;
2476;SDS011;1249;51.270;6.756;2023-07-31T14:34:53;6.33;;;3.10;;
2476;SDS011;1249;51.270;6.756;2023-07-31T14:37:19;2.80;;;2.40;;
2476;SDS011;1249;51.270;6.756;2023-07-31T14:39:45;5.00;;;3.33;;
2476;SDS011;1249;51.270;6.756;2023-07-31T14:42:10;3.40;;;3.10;;
2476;SDS011;1249;51.270;6.756;2023-07-31T14:44:36;4.40;;;3.23;;
2476;SDS011;1249;51.270;6.756;2023-07-31T14:47:02;3.73;;;3.43;;
2476;SDS011;1249;51.270;6.756;2023-07-31T14:49:27;6.73;;;3.20;;
2476;SDS011;1249;51.270;6.756;2023-07-31T14:51:53;4.40;;;3.27;;
2476;SDS011;1249;51.270;6.756;2023-07-31T14:54:19;4.40;;;3.10;;
2476;SDS011;1249;51.270;6.756;2023-07-31T14:56:44;3.53;;;3.13;;
2476;SDS011;1249;51.270;6.756;2023-07-31T14:59:10;4.43;;;3.07;;
2476;SDS011;1249;51.270;6.756;2023-07-31T15:01:36;4.07;;;3.50;;
2476;SDS011;1249;51.270;6.756;2023-07-31T15:04:02;3.40;;;3.10;;
2476;SDS011;1249;51.270;6.756;2023-07-31T15:06:27;3.10;;;2.90;;
2476;SDS011;1249;51.270;6.756;2023-07-31T15:08:56;5.27;;;3.77;;
2476;SDS011;1249;51.270;6.756;2023-07-31T15:11:22;3.67;;;3.30;;
2476;SDS011;1249;51.270;6.756;2023-07-31T15:13:48;13.17;;;3.80;;
2476;SDS011;1249;51.270;6.756;2023-07-31T15:16:13;4.17;;;3.77;;
2476;SDS011;1249;51.270;6.756;2023-07-31T15:18:39;4.90;;;3.50;;
2476;SDS011;1249;51.270;6.756;2023-07-31T15:21:05;4.70;;;4.10;;